createdAt,value
2023-05-02T00:00:13.957Z,21.63
2023-05-02T00:02:43.991Z,20.77
2023-05-02T00:05:12.434Z,24.30
2023-05-02T00:07:41.516Z,23.37
2023-05-02T00:10:10.302Z,23.87
2023-05-02T00:12:38.997Z,24.43
2023-05-02T00:15:07.952Z,24.60
2023-05-02T00:17:36.666Z,23.97
2023-05-02T00:20:10.221Z,25.33
2023-05-02T00:22:38.739Z,25.63
2023-05-02T00:25:09.220Z,25.63
2023-05-02T00:27:37.813Z,24.43
2023-05-02T00:30:06.670Z,24.77
2023-05-02T00:32:34.982Z,26.33
2023-05-02T00:35:03.246Z,27.57
2023-05-02T00:37:32.844Z,25.47
2023-05-02T00:40:01.313Z,25.03
2023-05-02T00:42:31.561Z,26.83
2023-05-02T00:44:59.960Z,27.93
2023-05-02T00:47:28.219Z,30.20
2023-05-02T00:49:56.512Z,31.50
2023-05-02T00:52:24.827Z,31.90
2023-05-02T00:54:54.586Z,31.37
2023-05-02T00:57:22.844Z,29.13
2023-05-02T00:59:51.605Z,34.47
2023-05-02T01:02:32.708Z,39.77
2023-05-02T01:05:03.548Z,31.03
2023-05-02T01:07:48.805Z,34.37
2023-05-02T01:10:23.531Z,37.17
2023-05-02T01:12:54.440Z,34.77
2023-05-02T01:15:23.568Z,34.50
2023-05-02T01:17:52.754Z,34.67
2023-05-02T01:20:22.608Z,31.77
2023-05-02T01:22:51.481Z,34.80
2023-05-02T01:25:24.510Z,34.90
2023-05-02T01:27:58.235Z,32.67
2023-05-02T01:30:30.783Z,33.43
2023-05-02T01:33:00.407Z,31.50
2023-05-02T01:35:29.356Z,32.93
2023-05-02T01:37:59.120Z,30.37
2023-05-02T01:40:27.876Z,33.43
2023-05-02T01:42:56.764Z,34.27
2023-05-02T01:45:25.763Z,31.80
2023-05-02T01:47:56.097Z,29.50
2023-05-02T01:50:27.076Z,32.20
2023-05-02T01:52:56.377Z,29.97
2023-05-02T01:55:26.115Z,32.93
2023-05-02T01:57:56.244Z,32.87
2023-05-02T02:00:24.480Z,33.10
2023-05-02T02:02:53.729Z,28.47
2023-05-02T02:05:24.320Z,30.60
2023-05-02T02:07:52.637Z,27.73
2023-05-02T02:10:21.049Z,27.97
2023-05-02T02:12:52.851Z,29.50
2023-05-02T02:15:27.037Z,29.50
2023-05-02T02:17:57.022Z,28.50
2023-05-02T02:20:27.309Z,28.10
2023-05-02T02:22:56.210Z,27.00
2023-05-02T02:25:24.602Z,26.97
2023-05-02T02:27:53.349Z,28.17
2023-05-02T02:30:21.586Z,27.97
2023-05-02T02:32:50.073Z,24.87
2023-05-02T02:35:18.401Z,26.17
2023-05-02T02:37:50.476Z,26.23
2023-05-02T02:40:21.004Z,22.30
2023-05-02T02:42:52.493Z,25.00
2023-05-02T02:45:28.736Z,24.07
2023-05-02T02:48:04.764Z,20.93
2023-05-02T02:50:34.420Z,23.20
2023-05-02T02:53:06.084Z,25.47
2023-05-02T02:55:38.653Z,22.53
2023-05-02T02:58:12.275Z,20.53
2023-05-02T03:00:41.001Z,24.03
2023-05-02T03:03:09.635Z,23.20
2023-05-02T03:05:37.869Z,22.30
2023-05-02T03:08:07.604Z,21.73
2023-05-02T03:10:35.810Z,20.43
2023-05-02T03:13:04.244Z,24.50
2023-05-02T03:15:59.167Z,24.40
2023-05-02T03:18:27.453Z,24.40
2023-05-02T03:20:55.740Z,25.30
2023-05-02T03:23:25.415Z,23.63
2023-05-02T03:25:53.676Z,24.63
2023-05-02T03:28:21.861Z,22.13
2023-05-02T03:30:50.061Z,22.03
2023-05-02T03:33:18.296Z,22.13
2023-05-02T03:35:46.478Z,21.70
2023-05-02T03:38:15.100Z,19.57
2023-05-02T03:40:44.668Z,20.60
2023-05-02T03:43:12.862Z,16.90
2023-05-02T03:45:41.165Z,18.70
2023-05-02T03:48:09.383Z,18.00
2023-05-02T03:50:37.658Z,14.70
2023-05-02T03:53:06.276Z,14.00
2023-05-02T03:55:34.496Z,12.63
2023-05-02T03:58:04.204Z,11.97
2023-05-02T04:00:33.307Z,10.63
2023-05-02T04:03:02.699Z,9.90
2023-05-02T04:05:30.958Z,8.20
2023-05-02T04:07:59.276Z,7.73
2023-05-02T04:10:27.481Z,7.17
2023-05-02T04:12:55.713Z,8.53
2023-05-02T04:15:25.399Z,6.37
2023-05-02T04:17:53.732Z,5.87
2023-05-02T04:20:22.207Z,7.43
2023-05-02T04:22:50.765Z,7.03
2023-05-02T04:25:19.210Z,6.23
2023-05-02T04:27:47.440Z,4.87
2023-05-02T04:30:15.710Z,5.43
2023-05-02T04:32:45.305Z,5.07
2023-05-02T04:35:15.375Z,4.50
2023-05-02T04:37:43.653Z,5.23
2023-05-02T04:40:12.472Z,4.47
2023-05-02T04:42:40.852Z,6.70
2023-05-02T04:45:09.632Z,5.70
2023-05-02T04:47:37.855Z,6.60
2023-05-02T04:50:08.585Z,4.37
2023-05-02T04:52:37.222Z,9.47
2023-05-02T04:55:05.730Z,12.10
2023-05-02T04:57:33.954Z,5.50
2023-05-02T05:00:02.297Z,4.47
2023-05-02T05:02:30.774Z,6.10
2023-05-02T05:04:59.158Z,5.17
2023-05-02T05:07:28.807Z,7.00
2023-05-02T05:09:57.089Z,6.50
2023-05-02T05:12:25.393Z,5.70
2023-05-02T05:14:53.650Z,5.83
2023-05-02T05:17:22.910Z,4.40
2023-05-02T05:19:51.433Z,7.33
2023-05-02T05:22:19.959Z,8.10
2023-05-02T05:24:54.570Z,6.40
2023-05-02T05:27:22.913Z,10.87
2023-05-02T05:29:51.281Z,8.10
2023-05-02T05:32:19.623Z,7.97
2023-05-02T05:34:48.120Z,6.53
2023-05-02T05:37:16.651Z,6.37
2023-05-02T05:39:44.899Z,9.27
2023-05-02T05:42:14.680Z,5.30
2023-05-02T05:44:43.027Z,5.60
2023-05-02T05:47:15.182Z,4.23
2023-05-02T05:49:46.103Z,3.50
2023-05-02T05:52:14.371Z,2.03
2023-05-02T05:54:46.408Z,3.23
2023-05-02T05:57:15.967Z,2.07
2023-05-02T05:59:44.365Z,2.97
2023-05-02T06:02:12.656Z,4.40
2023-05-02T06:04:40.944Z,4.40
2023-05-02T06:07:09.290Z,5.50
2023-05-02T06:09:37.463Z,6.70
2023-05-02T06:12:05.681Z,6.97
2023-05-02T06:14:35.298Z,6.70
2023-05-02T06:17:03.584Z,7.07
2023-05-02T06:19:31.855Z,13.43
2023-05-02T06:22:00.193Z,7.63
2023-05-02T06:24:28.374Z,8.33
2023-05-02T06:26:56.590Z,10.90
2023-05-02T06:29:25.008Z,8.63
2023-05-02T06:31:58.074Z,10.83
2023-05-02T06:34:26.441Z,12.87
2023-05-02T06:36:56.955Z,9.07
2023-05-02T06:39:25.253Z,15.00
2023-05-02T06:41:54.010Z,12.87
2023-05-02T06:44:22.228Z,14.03
2023-05-02T06:46:50.651Z,11.40
2023-05-02T06:49:20.294Z,17.37
2023-05-02T06:51:48.803Z,13.80
2023-05-02T06:54:17.092Z,13.77
2023-05-02T06:56:45.586Z,11.03
2023-05-02T06:59:13.838Z,13.47
2023-05-02T07:01:42.149Z,38.33
2023-05-02T07:04:10.628Z,15.80
2023-05-02T07:06:40.313Z,12.37
2023-05-02T07:09:08.631Z,8.53
2023-05-02T07:11:36.901Z,11.13
2023-05-02T07:14:05.275Z,11.23
2023-05-02T07:16:33.537Z,10.37
2023-05-02T07:19:04.477Z,11.20
2023-05-02T07:21:32.966Z,15.73
2023-05-02T07:24:03.306Z,12.13
2023-05-02T07:26:31.589Z,11.50
2023-05-02T07:28:59.852Z,13.50
2023-05-02T07:31:28.134Z,10.67
2023-05-02T07:33:56.960Z,11.20
2023-05-02T07:36:25.261Z,11.30
2023-05-02T07:38:53.609Z,15.77
2023-05-02T07:41:23.365Z,10.63
2023-05-02T07:43:51.873Z,13.17
2023-05-02T07:46:20.347Z,12.50
2023-05-02T07:48:48.801Z,7.73
2023-05-02T07:51:17.117Z,11.73
2023-05-02T07:53:45.506Z,10.80
2023-05-02T07:56:13.791Z,8.87
2023-05-02T07:58:43.588Z,9.80
2023-05-02T08:01:11.987Z,8.77
2023-05-02T08:03:40.406Z,14.03
2023-05-02T08:06:09.840Z,7.43
2023-05-02T08:08:38.537Z,10.10
2023-05-02T08:11:06.898Z,8.00
2023-05-02T08:13:35.483Z,9.30
2023-05-02T08:16:05.182Z,7.67
2023-05-02T08:18:34.087Z,7.17
2023-05-02T08:21:02.376Z,9.97
2023-05-02T08:23:31.493Z,7.77
2023-05-02T08:26:00.007Z,26.40
2023-05-02T08:28:28.420Z,27.27
2023-05-02T08:30:56.798Z,8.43
2023-05-02T08:33:26.709Z,9.90
2023-05-02T08:35:55.019Z,10.27
2023-05-02T08:38:23.340Z,9.07
2023-05-02T08:40:52.026Z,7.90
2023-05-02T08:43:20.356Z,8.33
2023-05-02T08:45:48.760Z,6.70
2023-05-02T08:48:18.466Z,6.70
2023-05-02T08:50:48.553Z,5.97
2023-05-02T08:53:16.962Z,5.77
2023-05-02T08:55:46.425Z,5.33
2023-05-02T08:58:16.225Z,7.57
2023-05-02T09:00:46.859Z,5.43
2023-05-02T09:03:23.943Z,4.70
2023-05-02T09:05:55.954Z,3.80
2023-05-02T09:08:25.274Z,6.47
2023-05-02T09:10:53.752Z,5.90
2023-05-02T09:13:32.068Z,5.50
2023-05-02T09:16:01.057Z,4.47
2023-05-02T09:18:30.908Z,12.33
2023-05-02T09:21:01.883Z,9.03
2023-05-02T09:23:43.243Z,4.40
2023-05-02T09:26:15.099Z,5.03
2023-05-02T09:28:45.396Z,3.87
2023-05-02T09:31:16.919Z,4.70
2023-05-02T09:33:47.836Z,5.93
2023-05-02T09:36:18.132Z,4.80
2023-05-02T09:38:47.304Z,7.60
2023-05-02T09:41:18.008Z,4.93
2023-05-02T09:43:46.622Z,5.70
2023-05-02T09:46:28.481Z,6.23
2023-05-02T09:48:57.636Z,4.93
2023-05-02T09:51:27.501Z,3.37
2023-05-02T09:53:57.192Z,7.70
2023-05-02T09:56:26.132Z,11.57
2023-05-02T09:59:13.871Z,9.07
2023-05-02T10:01:42.775Z,9.43
2023-05-02T10:04:16.400Z,14.70
2023-05-02T10:06:46.829Z,9.30
2023-05-02T10:09:20.609Z,7.70
2023-05-02T10:11:52.857Z,8.40
2023-05-02T10:14:22.529Z,9.03
2023-05-02T10:16:55.945Z,9.10
2023-05-02T10:19:26.223Z,10.53
2023-05-02T10:21:56.632Z,10.40
2023-05-02T10:24:26.295Z,6.47
2023-05-02T10:26:55.521Z,8.07
2023-05-02T10:29:24.278Z,8.57
2023-05-02T10:31:52.834Z,11.50
2023-05-02T10:34:21.313Z,10.50
2023-05-02T10:36:49.618Z,5.27
2023-05-02T10:39:19.688Z,10.67
2023-05-02T10:41:48.105Z,7.73
2023-05-02T10:44:16.643Z,12.10
2023-05-02T10:46:45.159Z,11.60
2023-05-02T10:49:14.446Z,13.00
2023-05-02T10:51:43.561Z,9.30
2023-05-02T10:54:23.756Z,6.20
2023-05-02T10:57:05.871Z,10.83
2023-05-02T10:59:35.349Z,12.20
2023-05-02T11:02:06.826Z,8.50
2023-05-02T11:04:54.043Z,7.23
2023-05-02T11:07:22.490Z,9.93
2023-05-02T11:09:53.324Z,8.43
2023-05-02T11:12:36.537Z,8.73
2023-05-02T11:15:04.854Z,10.23
2023-05-02T11:17:53.200Z,6.43
2023-05-02T11:20:21.782Z,7.43
2023-05-02T11:22:50.160Z,5.63
2023-05-02T11:25:32.662Z,10.03
2023-05-02T11:28:01.072Z,7.30
2023-05-02T11:30:38.869Z,4.50
2023-05-02T11:33:16.165Z,13.37
2023-05-02T11:35:46.902Z,7.10
2023-05-02T11:38:16.322Z,4.03
2023-05-02T11:40:53.004Z,8.60
2023-05-02T11:43:22.531Z,8.07
2023-05-02T11:45:51.402Z,7.10
2023-05-02T11:48:20.647Z,6.17
2023-05-02T11:50:50.338Z,6.97
2023-05-02T11:53:19.961Z,8.57
2023-05-02T11:55:49.264Z,9.77
2023-05-02T11:58:20.093Z,8.93
2023-05-02T12:00:49.037Z,7.23
2023-05-02T12:03:24.276Z,11.07
2023-05-02T12:05:54.068Z,8.63
2023-05-02T12:08:24.423Z,9.90
2023-05-02T12:10:53.882Z,9.80
2023-05-02T12:13:26.691Z,7.43
2023-05-02T12:15:56.392Z,6.80
2023-05-02T12:18:27.197Z,6.80
2023-05-02T12:20:56.639Z,7.97
2023-05-02T12:23:26.299Z,6.27
2023-05-02T12:25:54.883Z,6.90
2023-05-02T12:28:24.913Z,9.07
2023-05-02T12:30:53.637Z,9.73
2023-05-02T12:33:22.736Z,7.53
2023-05-02T12:35:51.413Z,7.13
2023-05-02T12:38:22.756Z,9.50
2023-05-02T12:40:52.126Z,9.17
2023-05-02T12:43:21.877Z,5.40
2023-05-02T12:45:54.270Z,6.93
2023-05-02T12:48:23.853Z,8.70
2023-05-02T12:50:52.581Z,6.20
2023-05-02T12:53:35.927Z,10.40
2023-05-02T12:56:04.700Z,5.70
2023-05-02T12:58:41.691Z,9.37
2023-05-02T13:01:14.337Z,8.60
2023-05-02T13:03:43.396Z,10.10
2023-05-02T13:06:12.382Z,6.47
2023-05-02T13:08:42.185Z,8.27
2023-05-02T13:11:11.021Z,7.10
2023-05-02T13:13:39.731Z,7.70
2023-05-02T13:16:09.112Z,3.60
2023-05-02T13:18:40.823Z,7.13
2023-05-02T13:21:09.424Z,9.20
2023-05-02T13:23:39.512Z,5.73
2023-05-02T13:26:08.098Z,7.83
2023-05-02T13:28:39.658Z,9.23
2023-05-02T13:31:09.463Z,7.40
2023-05-02T13:33:40.508Z,9.87
2023-05-02T13:36:09.191Z,11.67
2023-05-02T13:38:38.017Z,7.50
2023-05-02T13:41:06.752Z,6.10
2023-05-02T13:43:35.649Z,4.63
2023-05-02T13:46:05.322Z,8.83
2023-05-02T13:48:37.339Z,5.30
2023-05-02T13:51:07.753Z,7.67
2023-05-02T13:53:36.647Z,4.67
2023-05-02T13:56:04.920Z,5.73
2023-05-02T13:58:33.235Z,5.70
2023-05-02T14:01:01.441Z,5.67
2023-05-02T14:03:29.782Z,6.80
2023-05-02T14:05:59.355Z,5.27
2023-05-02T14:08:29.016Z,8.53
2023-05-02T14:10:57.812Z,7.23
2023-05-02T14:13:26.756Z,7.30
2023-05-02T14:15:55.335Z,9.60
2023-05-02T14:18:23.623Z,9.50
2023-05-02T14:20:52.310Z,7.33
2023-05-02T14:23:20.730Z,8.23
2023-05-02T14:25:50.804Z,8.07
2023-05-02T14:28:19.101Z,5.87
2023-05-02T14:30:47.589Z,7.37
2023-05-02T14:33:17.301Z,5.67
2023-05-02T14:35:46.502Z,6.03
2023-05-02T14:38:15.003Z,6.83
2023-05-02T14:40:44.345Z,10.03
2023-05-02T14:43:15.453Z,7.50
2023-05-02T14:45:43.694Z,4.93
2023-05-02T14:48:14.512Z,13.17
2023-05-02T14:50:43.055Z,7.13
2023-05-02T14:53:11.997Z,4.80
2023-05-02T14:55:40.347Z,6.20
2023-05-02T14:58:08.826Z,8.00
2023-05-02T15:00:38.694Z,6.47
2023-05-02T15:03:07.932Z,5.23
2023-05-02T15:05:37.892Z,8.37
2023-05-02T15:08:07.473Z,3.47
2023-05-02T15:10:38.220Z,3.57
2023-05-02T15:13:07.277Z,5.60
2023-05-02T15:15:37.358Z,3.83
2023-05-02T15:18:09.310Z,5.03
2023-05-02T15:20:38.456Z,3.00
2023-05-02T15:23:07.082Z,5.20
2023-05-02T15:25:35.724Z,8.83
2023-05-02T15:28:04.026Z,5.47
2023-05-02T15:30:32.489Z,4.07
2023-05-02T15:33:01.067Z,3.10
2023-05-02T15:35:31.442Z,4.10
2023-05-02T15:37:59.814Z,7.20
2023-05-02T15:40:28.476Z,4.10
2023-05-02T15:42:57.007Z,3.80
2023-05-02T15:45:25.891Z,2.80
2023-05-02T15:47:54.283Z,5.33
2023-05-02T15:50:31.383Z,6.30
2023-05-02T15:53:01.488Z,3.60
2023-05-02T15:55:29.821Z,5.30
2023-05-02T15:57:58.144Z,5.57
2023-05-02T16:00:26.836Z,3.03
2023-05-02T16:02:55.651Z,5.13
2023-05-02T16:05:25.126Z,6.63
2023-05-02T16:07:53.987Z,7.57
2023-05-02T16:10:24.690Z,5.03
2023-05-02T16:12:53.766Z,8.57
2023-05-02T16:15:22.359Z,3.40
2023-05-02T16:17:51.256Z,5.13
2023-05-02T16:20:19.961Z,5.63
2023-05-02T16:22:49.729Z,5.00
2023-05-02T16:25:18.729Z,3.53
2023-05-02T16:27:48.915Z,4.63
2023-05-02T16:30:17.395Z,4.20
2023-05-02T16:32:49.549Z,3.93
2023-05-02T16:35:20.863Z,5.23
2023-05-02T16:37:49.446Z,4.37
2023-05-02T16:40:18.037Z,5.03
2023-05-02T16:42:48.574Z,4.10
2023-05-02T16:45:20.311Z,1.77
2023-05-02T16:47:49.169Z,3.80
2023-05-02T16:50:19.166Z,4.27
2023-05-02T16:52:48.272Z,3.73
2023-05-02T16:55:17.822Z,5.80
2023-05-02T16:57:47.007Z,5.23
2023-05-02T17:00:18.982Z,2.17
2023-05-02T17:02:47.965Z,3.50
2023-05-02T17:05:17.049Z,4.80
2023-05-02T17:07:46.164Z,3.13
2023-05-02T17:10:17.544Z,4.37
2023-05-02T17:12:47.348Z,4.47
2023-05-02T17:15:20.826Z,2.10
2023-05-02T17:17:50.870Z,3.17
2023-05-02T17:20:20.532Z,4.13
2023-05-02T17:22:49.143Z,4.40
2023-05-02T17:25:17.847Z,3.67
2023-05-02T17:27:46.562Z,4.37
2023-05-02T17:30:15.591Z,6.20
2023-05-02T17:32:45.381Z,3.20
2023-05-02T17:35:14.506Z,5.70
2023-05-02T17:37:42.849Z,6.27
2023-05-02T17:40:12.259Z,3.07
2023-05-02T17:42:42.428Z,5.27
2023-05-02T17:45:11.573Z,4.23
2023-05-02T17:47:40.110Z,4.63
2023-05-02T17:50:14.167Z,5.13
2023-05-02T17:52:42.600Z,2.80
2023-05-02T17:55:11.195Z,5.67
2023-05-02T17:57:39.787Z,4.27
2023-05-02T18:00:08.743Z,2.33
2023-05-02T18:02:38.432Z,2.73
2023-05-02T18:05:07.914Z,6.23
2023-05-02T18:07:37.880Z,3.03
2023-05-02T18:10:06.880Z,3.27
2023-05-02T18:12:35.767Z,2.80
2023-05-02T18:15:05.109Z,5.13
2023-05-02T18:17:34.713Z,4.67
2023-05-02T18:20:04.558Z,3.97
2023-05-02T18:22:33.635Z,3.90
2023-05-02T18:25:03.913Z,5.47
2023-05-02T18:27:32.525Z,4.43
2023-05-02T18:30:01.972Z,3.17
2023-05-02T18:32:31.602Z,2.30
2023-05-02T18:35:00.411Z,2.80
2023-05-02T18:37:31.468Z,5.30
2023-05-02T18:39:59.920Z,2.33
2023-05-02T18:42:29.701Z,4.17
2023-05-02T18:44:57.999Z,7.77
2023-05-02T18:47:26.342Z,2.73
2023-05-02T18:49:56.366Z,4.87
2023-05-02T18:52:25.953Z,3.53
2023-05-02T18:54:54.555Z,5.70
2023-05-02T18:57:22.947Z,4.73
2023-05-02T18:59:53.139Z,4.97
2023-05-02T19:02:21.946Z,4.97
2023-05-02T19:04:50.693Z,5.83
2023-05-02T19:07:19.227Z,2.63
2023-05-02T19:09:47.570Z,3.00
2023-05-02T19:12:16.004Z,5.63
2023-05-02T19:14:44.814Z,3.60
2023-05-02T19:17:15.042Z,7.93
2023-05-02T19:19:43.982Z,3.40
2023-05-02T19:22:13.730Z,5.40
2023-05-02T19:24:42.520Z,2.70
2023-05-02T19:27:11.008Z,3.17
2023-05-02T19:29:39.923Z,4.60
2023-05-02T19:32:08.457Z,3.13
2023-05-02T19:34:38.369Z,2.63
2023-05-02T19:37:06.919Z,5.07
2023-05-02T19:39:35.375Z,6.03
2023-05-02T19:42:04.266Z,4.10
2023-05-02T19:44:32.585Z,2.97
2023-05-02T19:47:01.071Z,3.63
2023-05-02T19:49:29.471Z,3.77
2023-05-02T19:51:59.360Z,3.53
2023-05-02T19:54:29.650Z,3.63
2023-05-02T19:56:58.087Z,4.83
2023-05-02T19:59:27.558Z,3.37
2023-05-02T20:01:56.449Z,4.03
2023-05-02T20:04:25.905Z,4.10
2023-05-02T20:06:54.438Z,4.50
2023-05-02T20:09:24.308Z,4.00
2023-05-02T20:11:52.735Z,3.23
2023-05-02T20:14:21.499Z,3.53
2023-05-02T20:16:49.874Z,3.87
2023-05-02T20:19:19.988Z,2.87
2023-05-02T20:21:49.787Z,7.70
2023-05-02T20:24:18.205Z,4.23
2023-05-02T20:26:48.090Z,3.17
2023-05-02T20:29:16.725Z,3.80
2023-05-02T20:31:45.191Z,4.77
2023-05-02T20:34:13.493Z,2.23
2023-05-02T20:36:41.999Z,2.23
2023-05-02T20:39:12.305Z,3.13
2023-05-02T20:41:40.974Z,2.50
2023-05-02T20:44:11.017Z,2.90
2023-05-02T20:46:39.694Z,3.03
2023-05-02T20:49:08.620Z,5.20
2023-05-02T20:51:37.043Z,6.40
2023-05-02T20:54:05.985Z,4.27
2023-05-02T20:56:34.647Z,5.17
2023-05-02T20:59:03.022Z,2.47
2023-05-02T21:01:33.604Z,2.80
2023-05-02T21:04:03.417Z,1.60
2023-05-02T21:06:32.683Z,4.60
2023-05-02T21:09:03.954Z,3.70
2023-05-02T21:11:32.410Z,2.47
2023-05-02T21:14:00.690Z,2.93
2023-05-02T21:16:29.035Z,3.50
2023-05-02T21:18:59.109Z,3.53
2023-05-02T21:21:27.642Z,2.13
2023-05-02T21:23:56.006Z,3.90
2023-05-02T21:26:24.508Z,3.03
2023-05-02T21:28:53.000Z,3.37
2023-05-02T21:31:21.369Z,3.73
2023-05-02T21:33:49.727Z,5.53
2023-05-02T21:36:19.501Z,3.33
2023-05-02T21:38:47.934Z,3.20
2023-05-02T21:41:16.209Z,2.70
2023-05-02T21:43:44.975Z,2.60
2023-05-02T21:46:13.674Z,2.93
2023-05-02T21:48:42.300Z,4.07
2023-05-02T21:51:11.637Z,2.73
2023-05-02T21:53:41.549Z,4.57
2023-05-02T21:56:10.262Z,3.27
2023-05-02T21:58:38.535Z,6.73
2023-05-02T22:01:06.879Z,3.10
2023-05-02T22:03:35.385Z,4.90
2023-05-02T22:06:05.988Z,4.87
2023-05-02T22:08:35.662Z,4.53
2023-05-02T22:11:09.314Z,4.43
2023-05-02T22:13:37.883Z,4.50
2023-05-02T22:16:06.942Z,4.80
2023-05-02T22:18:35.569Z,3.67
2023-05-02T22:21:04.016Z,4.00
2023-05-02T22:23:32.359Z,5.70
2023-05-02T22:26:00.903Z,5.23
2023-05-02T22:28:30.751Z,3.13
2023-05-02T22:30:59.032Z,4.60
2023-05-02T22:33:27.358Z,3.53
2023-05-02T22:35:56.930Z,3.57
2023-05-02T22:38:25.379Z,5.57
2023-05-02T22:40:53.684Z,2.67
2023-05-02T22:43:21.993Z,6.20
2023-05-02T22:45:52.112Z,2.90
2023-05-02T22:48:20.423Z,5.13
2023-05-02T22:50:48.750Z,5.03
2023-05-02T22:53:17.119Z,4.00
2023-05-02T22:55:45.508Z,5.17
2023-05-02T22:58:13.844Z,3.97
2023-05-02T23:00:42.323Z,4.00
2023-05-02T23:03:12.230Z,3.60
2023-05-02T23:05:40.760Z,3.43
2023-05-02T23:08:09.226Z,2.70
2023-05-02T23:10:37.607Z,3.53
2023-05-02T23:13:06.795Z,3.23
2023-05-02T23:15:35.163Z,3.70
2023-05-02T23:18:03.598Z,4.33
2023-05-02T23:20:34.470Z,4.43
2023-05-02T23:23:02.832Z,4.50
2023-05-02T23:25:31.638Z,5.97
2023-05-02T23:27:59.901Z,7.13
2023-05-02T23:30:28.360Z,8.00
2023-05-02T23:32:56.738Z,4.47
2023-05-02T23:35:25.138Z,4.70
2023-05-02T23:37:55.076Z,5.60
2023-05-02T23:40:23.445Z,4.13
2023-05-02T23:42:51.793Z,3.83
2023-05-02T23:45:20.250Z,2.80
2023-05-02T23:47:48.595Z,4.57
2023-05-02T23:50:17.172Z,5.43
2023-05-02T23:52:45.446Z,4.73
2023-05-02T23:55:15.142Z,4.90
2023-05-02T23:57:43.710Z,5.47
